sensor_id;sensor_type;location;lat;lon;timestamp;P1;durP1;ratioP1;P2;durP2;ratioP2
25213;SDS011;13160;51.834;4.706;2022-08-21T00:01:44;10.05;;;4.75;;
25213;SDS011;13160;51.834;4.706;2022-08-21T00:04:13;10.60;;;4.30;;
25213;SDS011;13160;51.834;4.706;2022-08-21T00:06:47;9.48;;;4.03;;
25213;SDS011;13160;51.834;4.706;2022-08-21T00:09:18;8.13;;;4.20;;
25213;SDS011;13160;51.834;4.706;2022-08-21T00:11:47;6.63;;;3.75;;
25213;SDS011;13160;51.834;4.706;2022-08-21T00:14:16;9.10;;;4.38;;
25213;SDS011;13160;51.834;4.706;2022-08-21T00:16:44;8.80;;;4.07;;
25213;SDS011;13160;51.834;4.706;2022-08-21T00:19:13;12.25;;;4.13;;
25213;SDS011;13160;51.834;4.706;2022-08-21T00:21:41;7.82;;;4.35;;
25213;SDS011;13160;51.834;4.706;2022-08-21T00:24:10;12.05;;;4.75;;
25213;SDS011;13160;51.834;4.706;2022-08-21T00:26:39;10.05;;;4.80;;
25213;SDS011;13160;51.834;4.706;2022-08-21T00:29:09;10.15;;;4.00;;
25213;SDS011;13160;51.834;4.706;2022-08-21T00:31:37;9.35;;;4.43;;
25213;SDS011;13160;51.834;4.706;2022-08-21T00:34:06;10.05;;;4.53;;
25213;SDS011;13160;51.834;4.706;2022-08-21T00:36:35;12.43;;;4.93;;
25213;SDS011;13160;51.834;4.706;2022-08-21T00:39:04;14.48;;;4.53;;
25213;SDS011;13160;51.834;4.706;2022-08-21T00:41:35;8.57;;;4.88;;
25213;SDS011;13160;51.834;4.706;2022-08-21T00:44:07;8.93;;;4.28;;
25213;SDS011;13160;51.834;4.706;2022-08-21T00:46:39;12.88;;;5.03;;
25213;SDS011;13160;51.834;4.706;2022-08-21T00:49:09;9.77;;;4.45;;
25213;SDS011;13160;51.834;4.706;2022-08-21T00:51:41;9.82;;;4.78;;
25213;SDS011;13160;51.834;4.706;2022-08-21T00:54:15;10.55;;;4.40;;
25213;SDS011;13160;51.834;4.706;2022-08-21T00:56:47;12.02;;;4.80;;
25213;SDS011;13160;51.834;4.706;2022-08-21T00:59:26;9.77;;;4.65;;
25213;SDS011;13160;51.834;4.706;2022-08-21T01:01:59;11.63;;;4.75;;
25213;SDS011;13160;51.834;4.706;2022-08-21T01:04:28;11.80;;;4.25;;
25213;SDS011;13160;51.834;4.706;2022-08-21T01:06:56;9.60;;;4.50;;
25213;SDS011;13160;51.834;4.706;2022-08-21T01:09:24;9.93;;;4.57;;
25213;SDS011;13160;51.834;4.706;2022-08-21T01:11:54;11.05;;;4.70;;
25213;SDS011;13160;51.834;4.706;2022-08-21T01:14:22;9.90;;;4.10;;
25213;SDS011;13160;51.834;4.706;2022-08-21T01:16:52;10.38;;;4.85;;
25213;SDS011;13160;51.834;4.706;2022-08-21T01:19:21;12.50;;;4.65;;
25213;SDS011;13160;51.834;4.706;2022-08-21T01:21:52;9.38;;;4.20;;
25213;SDS011;13160;51.834;4.706;2022-08-21T01:24:21;9.95;;;4.00;;
25213;SDS011;13160;51.834;4.706;2022-08-21T01:26:50;9.23;;;3.70;;
25213;SDS011;13160;51.834;4.706;2022-08-21T01:29:23;11.93;;;4.60;;
25213;SDS011;13160;51.834;4.706;2022-08-21T01:32:03;12.05;;;4.45;;
25213;SDS011;13160;51.834;4.706;2022-08-21T01:34:34;11.07;;;3.92;;
25213;SDS011;13160;51.834;4.706;2022-08-21T01:37:07;12.30;;;4.00;;
25213;SDS011;13160;51.834;4.706;2022-08-21T01:39:36;12.38;;;4.20;;
25213;SDS011;13160;51.834;4.706;2022-08-21T01:42:05;10.18;;;3.90;;
25213;SDS011;13160;51.834;4.706;2022-08-21T01:44:34;10.45;;;3.85;;
25213;SDS011;13160;51.834;4.706;2022-08-21T01:47:04;9.93;;;3.72;;
25213;SDS011;13160;51.834;4.706;2022-08-21T01:49:36;10.73;;;3.90;;
25213;SDS011;13160;51.834;4.706;2022-08-21T01:52:07;10.98;;;3.97;;
25213;SDS011;13160;51.834;4.706;2022-08-21T01:54:36;10.20;;;3.97;;
25213;SDS011;13160;51.834;4.706;2022-08-21T01:57:05;11.60;;;4.00;;
25213;SDS011;13160;51.834;4.706;2022-08-21T01:59:34;12.00;;;3.83;;
25213;SDS011;13160;51.834;4.706;2022-08-21T02:02:03;12.40;;;4.22;;
25213;SDS011;13160;51.834;4.706;2022-08-21T02:04:32;9.02;;;3.50;;
25213;SDS011;13160;51.834;4.706;2022-08-21T02:07:01;10.13;;;3.78;;
25213;SDS011;13160;51.834;4.706;2022-08-21T02:09:35;10.55;;;3.85;;
25213;SDS011;13160;51.834;4.706;2022-08-21T02:12:05;10.45;;;3.85;;
25213;SDS011;13160;51.834;4.706;2022-08-21T02:14:34;7.25;;;3.30;;
25213;SDS011;13160;51.834;4.706;2022-08-21T02:17:03;10.35;;;3.35;;
25213;SDS011;13160;51.834;4.706;2022-08-21T02:19:35;11.43;;;3.80;;
25213;SDS011;13160;51.834;4.706;2022-08-21T02:22:06;11.38;;;3.72;;
25213;SDS011;13160;51.834;4.706;2022-08-21T02:24:37;14.57;;;3.90;;
25213;SDS011;13160;51.834;4.706;2022-08-21T02:27:20;9.10;;;3.28;;
25213;SDS011;13160;51.834;4.706;2022-08-21T02:29:51;12.15;;;3.83;;
25213;SDS011;13160;51.834;4.706;2022-08-21T02:32:20;10.15;;;3.42;;
25213;SDS011;13160;51.834;4.706;2022-08-21T02:34:48;9.07;;;3.78;;
25213;SDS011;13160;51.834;4.706;2022-08-21T02:37:17;8.55;;;3.22;;
25213;SDS011;13160;51.834;4.706;2022-08-21T02:39:46;8.95;;;3.80;;
25213;SDS011;13160;51.834;4.706;2022-08-21T02:42:15;11.73;;;3.42;;
25213;SDS011;13160;51.834;4.706;2022-08-21T02:44:44;9.75;;;3.47;;
25213;SDS011;13160;51.834;4.706;2022-08-21T02:47:13;10.13;;;4.00;;
25213;SDS011;13160;51.834;4.706;2022-08-21T02:49:41;12.15;;;3.95;;
25213;SDS011;13160;51.834;4.706;2022-08-21T02:52:10;9.40;;;3.70;;
25213;SDS011;13160;51.834;4.706;2022-08-21T02:54:38;11.43;;;4.55;;
25213;SDS011;13160;51.834;4.706;2022-08-21T02:57:08;10.85;;;4.00;;
25213;SDS011;13160;51.834;4.706;2022-08-21T02:59:36;9.65;;;4.00;;
25213;SDS011;13160;51.834;4.706;2022-08-21T03:02:04;12.05;;;3.80;;
25213;SDS011;13160;51.834;4.706;2022-08-21T03:04:32;11.15;;;4.40;;
25213;SDS011;13160;51.834;4.706;2022-08-21T03:07:01;10.25;;;3.42;;
25213;SDS011;13160;51.834;4.706;2022-08-21T03:09:36;9.63;;;4.60;;
25213;SDS011;13160;51.834;4.706;2022-08-21T03:12:12;12.73;;;4.68;;
25213;SDS011;13160;51.834;4.706;2022-08-21T03:14:40;15.35;;;5.53;;
25213;SDS011;13160;51.834;4.706;2022-08-21T03:17:08;11.73;;;5.00;;
25213;SDS011;13160;51.834;4.706;2022-08-21T03:19:37;9.70;;;4.85;;
25213;SDS011;13160;51.834;4.706;2022-08-21T03:22:05;12.82;;;5.60;;
25213;SDS011;13160;51.834;4.706;2022-08-21T03:24:33;12.82;;;5.35;;
25213;SDS011;13160;51.834;4.706;2022-08-21T03:27:08;11.77;;;5.43;;
25213;SDS011;13160;51.834;4.706;2022-08-21T03:29:37;12.68;;;5.78;;
25213;SDS011;13160;51.834;4.706;2022-08-21T03:32:06;11.55;;;5.47;;
25213;SDS011;13160;51.834;4.706;2022-08-21T03:34:35;11.85;;;5.25;;
25213;SDS011;13160;51.834;4.706;2022-08-21T03:37:05;14.40;;;5.97;;
25213;SDS011;13160;51.834;4.706;2022-08-21T03:39:36;11.95;;;5.60;;
25213;SDS011;13160;51.834;4.706;2022-08-21T03:42:04;12.25;;;6.32;;
25213;SDS011;13160;51.834;4.706;2022-08-21T03:44:33;12.50;;;6.20;;
25213;SDS011;13160;51.834;4.706;2022-08-21T03:47:03;14.35;;;6.15;;
25213;SDS011;13160;51.834;4.706;2022-08-21T03:49:32;11.50;;;6.40;;
25213;SDS011;13160;51.834;4.706;2022-08-21T03:52:00;10.32;;;6.22;;
25213;SDS011;13160;51.834;4.706;2022-08-21T03:54:29;14.52;;;6.80;;
25213;SDS011;13160;51.834;4.706;2022-08-21T03:56:58;16.70;;;7.30;;
25213;SDS011;13160;51.834;4.706;2022-08-21T03:59:27;11.73;;;6.10;;
25213;SDS011;13160;51.834;4.706;2022-08-21T04:01:56;11.63;;;6.30;;
25213;SDS011;13160;51.834;4.706;2022-08-21T04:04:29;14.82;;;6.28;;
25213;SDS011;13160;51.834;4.706;2022-08-21T04:06:58;13.32;;;6.38;;
25213;SDS011;13160;51.834;4.706;2022-08-21T04:09:27;12.77;;;6.10;;
25213;SDS011;13160;51.834;4.706;2022-08-21T04:11:56;17.15;;;6.30;;
25213;SDS011;13160;51.834;4.706;2022-08-21T04:14:25;12.55;;;6.25;;
25213;SDS011;13160;51.834;4.706;2022-08-21T04:16:54;14.43;;;6.90;;
25213;SDS011;13160;51.834;4.706;2022-08-21T04:19:22;14.25;;;6.63;;
25213;SDS011;13160;51.834;4.706;2022-08-21T04:21:52;16.50;;;6.90;;
25213;SDS011;13160;51.834;4.706;2022-08-21T04:24:20;13.00;;;6.40;;
25213;SDS011;13160;51.834;4.706;2022-08-21T04:26:49;13.23;;;6.82;;
25213;SDS011;13160;51.834;4.706;2022-08-21T04:29:17;15.43;;;6.93;;
25213;SDS011;13160;51.834;4.706;2022-08-21T04:31:46;17.42;;;7.68;;
25213;SDS011;13160;51.834;4.706;2022-08-21T04:34:14;16.15;;;7.38;;
25213;SDS011;13160;51.834;4.706;2022-08-21T04:36:42;16.98;;;7.30;;
25213;SDS011;13160;51.834;4.706;2022-08-21T04:39:12;19.02;;;7.57;;
25213;SDS011;13160;51.834;4.706;2022-08-21T04:41:41;16.75;;;7.20;;
25213;SDS011;13160;51.834;4.706;2022-08-21T04:44:09;16.42;;;6.90;;
25213;SDS011;13160;51.834;4.706;2022-08-21T04:46:37;24.15;;;7.65;;
25213;SDS011;13160;51.834;4.706;2022-08-21T04:49:06;19.00;;;7.22;;
25213;SDS011;13160;51.834;4.706;2022-08-21T04:51:34;15.40;;;6.78;;
25213;SDS011;13160;51.834;4.706;2022-08-21T04:54:06;17.13;;;7.57;;
25213;SDS011;13160;51.834;4.706;2022-08-21T04:56:40;15.10;;;6.53;;
25213;SDS011;13160;51.834;4.706;2022-08-21T04:59:13;16.40;;;6.80;;
25213;SDS011;13160;51.834;4.706;2022-08-21T05:01:46;19.48;;;7.13;;
25213;SDS011;13160;51.834;4.706;2022-08-21T05:04:18;16.10;;;7.07;;
25213;SDS011;13160;51.834;4.706;2022-08-21T05:06:51;14.88;;;6.07;;
25213;SDS011;13160;51.834;4.706;2022-08-21T05:09:22;15.93;;;6.15;;
25213;SDS011;13160;51.834;4.706;2022-08-21T05:11:53;16.30;;;6.88;;
25213;SDS011;13160;51.834;4.706;2022-08-21T05:14:22;19.35;;;6.38;;
25213;SDS011;13160;51.834;4.706;2022-08-21T05:16:51;17.45;;;7.03;;
25213;SDS011;13160;51.834;4.706;2022-08-21T05:19:19;16.33;;;6.95;;
25213;SDS011;13160;51.834;4.706;2022-08-21T05:21:50;15.15;;;6.47;;
25213;SDS011;13160;51.834;4.706;2022-08-21T05:24:18;15.65;;;6.30;;
25213;SDS011;13160;51.834;4.706;2022-08-21T05:26:47;17.48;;;6.22;;
25213;SDS011;13160;51.834;4.706;2022-08-21T05:29:16;14.75;;;6.53;;
25213;SDS011;13160;51.834;4.706;2022-08-21T05:31:45;15.43;;;6.88;;
25213;SDS011;13160;51.834;4.706;2022-08-21T05:34:17;16.77;;;7.00;;
25213;SDS011;13160;51.834;4.706;2022-08-21T05:36:47;13.32;;;6.45;;
25213;SDS011;13160;51.834;4.706;2022-08-21T05:39:16;17.20;;;6.35;;
25213;SDS011;13160;51.834;4.706;2022-08-21T05:41:45;17.98;;;6.50;;
25213;SDS011;13160;51.834;4.706;2022-08-21T05:44:13;15.70;;;6.30;;
25213;SDS011;13160;51.834;4.706;2022-08-21T05:46:43;16.17;;;7.07;;
25213;SDS011;13160;51.834;4.706;2022-08-21T05:49:14;18.50;;;6.15;;
25213;SDS011;13160;51.834;4.706;2022-08-21T05:51:46;15.82;;;7.20;;
25213;SDS011;13160;51.834;4.706;2022-08-21T05:54:17;15.43;;;6.50;;
25213;SDS011;13160;51.834;4.706;2022-08-21T05:56:48;14.13;;;6.13;;
25213;SDS011;13160;51.834;4.706;2022-08-21T05:59:17;15.10;;;6.22;;
25213;SDS011;13160;51.834;4.706;2022-08-21T06:01:46;13.10;;;6.50;;
25213;SDS011;13160;51.834;4.706;2022-08-21T06:04:15;16.10;;;7.10;;
25213;SDS011;13160;51.834;4.706;2022-08-21T06:06:46;15.10;;;6.78;;
25213;SDS011;13160;51.834;4.706;2022-08-21T06:09:14;13.15;;;6.57;;
25213;SDS011;13160;51.834;4.706;2022-08-21T06:11:44;16.13;;;6.65;;
25213;SDS011;13160;51.834;4.706;2022-08-21T06:14:13;14.18;;;7.07;;
25213;SDS011;13160;51.834;4.706;2022-08-21T06:16:43;11.32;;;6.20;;
25213;SDS011;13160;51.834;4.706;2022-08-21T06:19:13;15.73;;;6.45;;
25213;SDS011;13160;51.834;4.706;2022-08-21T06:21:41;14.25;;;6.32;;
25213;SDS011;13160;51.834;4.706;2022-08-21T06:24:09;14.30;;;6.30;;
25213;SDS011;13160;51.834;4.706;2022-08-21T06:26:39;14.38;;;6.75;;
25213;SDS011;13160;51.834;4.706;2022-08-21T06:29:12;16.83;;;6.55;;
25213;SDS011;13160;51.834;4.706;2022-08-21T06:31:42;17.98;;;6.53;;
25213;SDS011;13160;51.834;4.706;2022-08-21T06:34:14;14.55;;;6.57;;
25213;SDS011;13160;51.834;4.706;2022-08-21T06:36:43;17.70;;;7.20;;
25213;SDS011;13160;51.834;4.706;2022-08-21T06:39:11;12.23;;;6.35;;
25213;SDS011;13160;51.834;4.706;2022-08-21T06:41:55;17.80;;;6.32;;
25213;SDS011;13160;51.834;4.706;2022-08-21T06:44:24;13.75;;;6.03;;
25213;SDS011;13160;51.834;4.706;2022-08-21T06:46:53;13.98;;;6.97;;
25213;SDS011;13160;51.834;4.706;2022-08-21T06:49:23;17.17;;;6.40;;
25213;SDS011;13160;51.834;4.706;2022-08-21T06:51:51;15.85;;;6.93;;
25213;SDS011;13160;51.834;4.706;2022-08-21T06:54:19;13.80;;;6.05;;
25213;SDS011;13160;51.834;4.706;2022-08-21T06:56:47;17.52;;;7.00;;
25213;SDS011;13160;51.834;4.706;2022-08-21T06:59:15;18.00;;;7.35;;
25213;SDS011;13160;51.834;4.706;2022-08-21T07:01:44;17.67;;;6.72;;
25213;SDS011;13160;51.834;4.706;2022-08-21T07:04:13;18.83;;;6.22;;
25213;SDS011;13160;51.834;4.706;2022-08-21T07:06:43;13.43;;;5.13;;
25213;SDS011;13160;51.834;4.706;2022-08-21T07:09:11;11.32;;;4.90;;
25213;SDS011;13160;51.834;4.706;2022-08-21T07:11:39;12.48;;;4.45;;
25213;SDS011;13160;51.834;4.706;2022-08-21T07:14:13;13.00;;;4.13;;
25213;SDS011;13160;51.834;4.706;2022-08-21T07:16:46;16.33;;;4.97;;
25213;SDS011;13160;51.834;4.706;2022-08-21T07:19:14;12.98;;;4.65;;
25213;SDS011;13160;51.834;4.706;2022-08-21T07:21:44;15.98;;;4.63;;
25213;SDS011;13160;51.834;4.706;2022-08-21T07:24:12;12.18;;;4.70;;
25213;SDS011;13160;51.834;4.706;2022-08-21T07:26:41;9.43;;;3.75;;
25213;SDS011;13160;51.834;4.706;2022-08-21T07:29:09;13.30;;;3.83;;
25213;SDS011;13160;51.834;4.706;2022-08-21T07:31:38;13.00;;;5.18;;
25213;SDS011;13160;51.834;4.706;2022-08-21T07:34:06;15.82;;;4.68;;
25213;SDS011;13160;51.834;4.706;2022-08-21T07:36:35;13.93;;;4.60;;
25213;SDS011;13160;51.834;4.706;2022-08-21T07:39:05;10.95;;;4.22;;
25213;SDS011;13160;51.834;4.706;2022-08-21T07:41:34;13.18;;;4.53;;
25213;SDS011;13160;51.834;4.706;2022-08-21T07:44:03;11.02;;;4.60;;
25213;SDS011;13160;51.834;4.706;2022-08-21T07:46:31;14.02;;;4.93;;
25213;SDS011;13160;51.834;4.706;2022-08-21T07:49:00;13.20;;;4.80;;
25213;SDS011;13160;51.834;4.706;2022-08-21T07:51:28;13.48;;;4.80;;
25213;SDS011;13160;51.834;4.706;2022-08-21T07:53:57;10.35;;;4.07;;
25213;SDS011;13160;51.834;4.706;2022-08-21T07:56:27;12.45;;;4.53;;
25213;SDS011;13160;51.834;4.706;2022-08-21T07:58:58;15.05;;;4.90;;
25213;SDS011;13160;51.834;4.706;2022-08-21T08:01:26;13.55;;;3.90;;
25213;SDS011;13160;51.834;4.706;2022-08-21T08:03:54;16.63;;;4.05;;
25213;SDS011;13160;51.834;4.706;2022-08-21T08:06:22;12.88;;;4.40;;
25213;SDS011;13160;51.834;4.706;2022-08-21T08:08:52;15.57;;;4.63;;
25213;SDS011;13160;51.834;4.706;2022-08-21T08:11:20;12.15;;;4.03;;
25213;SDS011;13160;51.834;4.706;2022-08-21T08:13:51;12.10;;;4.28;;
25213;SDS011;13160;51.834;4.706;2022-08-21T08:16:20;11.35;;;3.90;;
25213;SDS011;13160;51.834;4.706;2022-08-21T08:18:48;14.45;;;4.78;;
25213;SDS011;13160;51.834;4.706;2022-08-21T08:21:17;9.75;;;3.35;;
25213;SDS011;13160;51.834;4.706;2022-08-21T08:23:47;12.25;;;3.97;;
25213;SDS011;13160;51.834;4.706;2022-08-21T08:26:15;12.82;;;3.75;;
25213;SDS011;13160;51.834;4.706;2022-08-21T08:28:44;14.45;;;4.38;;
25213;SDS011;13160;51.834;4.706;2022-08-21T08:31:17;11.25;;;3.67;;
25213;SDS011;13160;51.834;4.706;2022-08-21T08:33:45;12.45;;;3.70;;
25213;SDS011;13160;51.834;4.706;2022-08-21T08:36:14;11.43;;;3.45;;
25213;SDS011;13160;51.834;4.706;2022-08-21T08:38:45;15.88;;;3.63;;
25213;SDS011;13160;51.834;4.706;2022-08-21T08:41:16;13.48;;;3.40;;
25213;SDS011;13160;51.834;4.706;2022-08-21T08:43:52;12.25;;;3.22;;
25213;SDS011;13160;51.834;4.706;2022-08-21T08:46:25;10.80;;;2.78;;
25213;SDS011;13160;51.834;4.706;2022-08-21T08:49:00;13.77;;;3.80;;
25213;SDS011;13160;51.834;4.706;2022-08-21T08:51:37;11.48;;;3.30;;
25213;SDS011;13160;51.834;4.706;2022-08-21T08:54:19;10.25;;;3.17;;
25213;SDS011;13160;51.834;4.706;2022-08-21T08:56:58;11.30;;;3.55;;
25213;SDS011;13160;51.834;4.706;2022-08-21T08:59:32;13.55;;;3.58;;
25213;SDS011;13160;51.834;4.706;2022-08-21T09:02:11;10.35;;;3.10;;
25213;SDS011;13160;51.834;4.706;2022-08-21T09:04:41;11.30;;;3.17;;
25213;SDS011;13160;51.834;4.706;2022-08-21T09:07:12;11.05;;;3.33;;
25213;SDS011;13160;51.834;4.706;2022-08-21T09:09:53;11.80;;;3.20;;
25213;SDS011;13160;51.834;4.706;2022-08-21T09:12:45;9.07;;;2.78;;
25213;SDS011;13160;51.834;4.706;2022-08-21T09:15:24;14.45;;;3.50;;
25213;SDS011;13160;51.834;4.706;2022-08-21T09:18:11;11.32;;;2.88;;
25213;SDS011;13160;51.834;4.706;2022-08-21T09:21:02;10.60;;;2.88;;
25213;SDS011;13160;51.834;4.706;2022-08-21T09:23:42;7.88;;;2.55;;
25213;SDS011;13160;51.834;4.706;2022-08-21T09:26:18;10.82;;;2.80;;
25213;SDS011;13160;51.834;4.706;2022-08-21T09:28:51;10.88;;;3.00;;
25213;SDS011;13160;51.834;4.706;2022-08-21T09:31:24;11.27;;;2.80;;
25213;SDS011;13160;51.834;4.706;2022-08-21T09:34:00;12.32;;;3.33;;
25213;SDS011;13160;51.834;4.706;2022-08-21T09:36:34;10.60;;;2.65;;
25213;SDS011;13160;51.834;4.706;2022-08-21T09:39:07;12.02;;;3.10;;
25213;SDS011;13160;51.834;4.706;2022-08-21T09:41:37;13.38;;;3.28;;
25213;SDS011;13160;51.834;4.706;2022-08-21T09:44:07;11.80;;;2.90;;
25213;SDS011;13160;51.834;4.706;2022-08-21T09:46:36;9.23;;;2.83;;
25213;SDS011;13160;51.834;4.706;2022-08-21T09:49:05;10.98;;;2.80;;
25213;SDS011;13160;51.834;4.706;2022-08-21T09:51:49;11.63;;;2.50;;
25213;SDS011;13160;51.834;4.706;2022-08-21T09:54:20;10.27;;;2.38;;
25213;SDS011;13160;51.834;4.706;2022-08-21T09:56:57;11.38;;;2.92;;
25213;SDS011;13160;51.834;4.706;2022-08-21T09:59:45;11.63;;;2.25;;
25213;SDS011;13160;51.834;4.706;2022-08-21T10:02:19;10.30;;;2.50;;
25213;SDS011;13160;51.834;4.706;2022-08-21T10:04:55;9.05;;;2.38;;
25213;SDS011;13160;51.834;4.706;2022-08-21T10:07:26;9.85;;;2.40;;
25213;SDS011;13160;51.834;4.706;2022-08-21T10:10:00;9.18;;;2.70;;
25213;SDS011;13160;51.834;4.706;2022-08-21T10:12:35;7.32;;;2.20;;
25213;SDS011;13160;51.834;4.706;2022-08-21T10:15:17;11.38;;;2.17;;
25213;SDS011;13160;51.834;4.706;2022-08-21T10:17:53;10.30;;;2.58;;
25213;SDS011;13160;51.834;4.706;2022-08-21T10:20:44;9.32;;;2.28;;
25213;SDS011;13160;51.834;4.706;2022-08-21T10:23:29;10.48;;;2.25;;
25213;SDS011;13160;51.834;4.706;2022-08-21T10:26:11;6.25;;;2.08;;
25213;SDS011;13160;51.834;4.706;2022-08-21T10:28:55;7.43;;;2.17;;
25213;SDS011;13160;51.834;4.706;2022-08-21T10:31:35;9.75;;;2.50;;
25213;SDS011;13160;51.834;4.706;2022-08-21T10:34:33;8.98;;;2.50;;
25213;SDS011;13160;51.834;4.706;2022-08-21T10:37:16;10.90;;;2.30;;
25213;SDS011;13160;51.834;4.706;2022-08-21T10:39:57;11.63;;;2.80;;
25213;SDS011;13160;51.834;4.706;2022-08-21T10:42:41;7.47;;;2.05;;
25213;SDS011;13160;51.834;4.706;2022-08-21T10:45:27;7.65;;;2.20;;
25213;SDS011;13160;51.834;4.706;2022-08-21T10:48:12;8.43;;;2.03;;
25213;SDS011;13160;51.834;4.706;2022-08-21T10:50:49;8.20;;;1.75;;
25213;SDS011;13160;51.834;4.706;2022-08-21T10:53:31;7.03;;;1.88;;
25213;SDS011;13160;51.834;4.706;2022-08-21T10:56:13;9.18;;;2.33;;
25213;SDS011;13160;51.834;4.706;2022-08-21T10:58:46;5.88;;;1.92;;
25213;SDS011;13160;51.834;4.706;2022-08-21T11:01:28;8.57;;;2.40;;
25213;SDS011;13160;51.834;4.706;2022-08-21T11:04:09;7.65;;;2.28;;
25213;SDS011;13160;51.834;4.706;2022-08-21T11:06:46;9.20;;;2.63;;
25213;SDS011;13160;51.834;4.706;2022-08-21T11:09:22;9.13;;;2.10;;
25213;SDS011;13160;51.834;4.706;2022-08-21T11:11:54;9.13;;;2.10;;
25213;SDS011;13160;51.834;4.706;2022-08-21T11:14:39;12.50;;;2.42;;
25213;SDS011;13160;51.834;4.706;2022-08-21T11:17:16;6.95;;;2.20;;
25213;SDS011;13160;51.834;4.706;2022-08-21T11:19:52;7.38;;;2.08;;
25213;SDS011;13160;51.834;4.706;2022-08-21T11:22:28;10.98;;;2.40;;
25213;SDS011;13160;51.834;4.706;2022-08-21T11:25:07;12.88;;;2.58;;
25213;SDS011;13160;51.834;4.706;2022-08-21T11:27:45;9.02;;;2.15;;
25213;SDS011;13160;51.834;4.706;2022-08-21T11:30:18;11.25;;;2.72;;
25213;SDS011;13160;51.834;4.706;2022-08-21T11:32:52;8.23;;;2.20;;
25213;SDS011;13160;51.834;4.706;2022-08-21T11:35:37;10.20;;;2.70;;
25213;SDS011;13160;51.834;4.706;2022-08-21T11:38:18;9.55;;;2.22;;
25213;SDS011;13160;51.834;4.706;2022-08-21T11:41:03;12.82;;;2.45;;
25213;SDS011;13160;51.834;4.706;2022-08-21T11:43:53;8.73;;;2.22;;
25213;SDS011;13160;51.834;4.706;2022-08-21T11:46:33;9.30;;;2.22;;
25213;SDS011;13160;51.834;4.706;2022-08-21T11:49:23;8.90;;;2.30;;
25213;SDS011;13160;51.834;4.706;2022-08-21T11:52:09;8.18;;;2.05;;
25213;SDS011;13160;51.834;4.706;2022-08-21T11:54:45;7.88;;;2.17;;
25213;SDS011;13160;51.834;4.706;2022-08-21T11:57:19;6.65;;;2.05;;
25213;SDS011;13160;51.834;4.706;2022-08-21T11:59:53;8.50;;;2.30;;
25213;SDS011;13160;51.834;4.706;2022-08-21T12:02:28;8.35;;;2.10;;
25213;SDS011;13160;51.834;4.706;2022-08-21T12:05:03;6.43;;;1.48;;
25213;SDS011;13160;51.834;4.706;2022-08-21T12:07:36;5.45;;;1.73;;
25213;SDS011;13160;51.834;4.706;2022-08-21T12:10:08;7.45;;;1.95;;
25213;SDS011;13160;51.834;4.706;2022-08-21T12:12:41;11.55;;;2.45;;
25213;SDS011;13160;51.834;4.706;2022-08-21T12:15:24;7.47;;;2.10;;
25213;SDS011;13160;51.834;4.706;2022-08-21T12:17:59;7.78;;;2.38;;
25213;SDS011;13160;51.834;4.706;2022-08-21T12:20:36;7.75;;;2.25;;
25213;SDS011;13160;51.834;4.706;2022-08-21T12:23:25;8.05;;;2.10;;
25213;SDS011;13160;51.834;4.706;2022-08-21T12:26:09;5.90;;;1.90;;
25213;SDS011;13160;51.834;4.706;2022-08-21T12:29:04;9.07;;;2.33;;
25213;SDS011;13160;51.834;4.706;2022-08-21T12:31:47;6.60;;;2.03;;
25213;SDS011;13160;51.834;4.706;2022-08-21T12:34:23;9.43;;;2.45;;
25213;SDS011;13160;51.834;4.706;2022-08-21T12:36:59;6.00;;;1.90;;
25213;SDS011;13160;51.834;4.706;2022-08-21T12:39:32;6.47;;;2.20;;
25213;SDS011;13160;51.834;4.706;2022-08-21T12:42:05;8.45;;;2.13;;
25213;SDS011;13160;51.834;4.706;2022-08-21T12:44:45;7.03;;;2.08;;
25213;SDS011;13160;51.834;4.706;2022-08-21T12:47:21;6.25;;;2.00;;
25213;SDS011;13160;51.834;4.706;2022-08-21T12:49:59;8.90;;;2.20;;
25213;SDS011;13160;51.834;4.706;2022-08-21T12:52:33;7.93;;;2.30;;
25213;SDS011;13160;51.834;4.706;2022-08-21T12:55:06;7.47;;;2.50;;
25213;SDS011;13160;51.834;4.706;2022-08-21T12:57:39;6.20;;;2.42;;
25213;SDS011;13160;51.834;4.706;2022-08-21T13:00:11;5.70;;;1.83;;
25213;SDS011;13160;51.834;4.706;2022-08-21T13:02:42;8.00;;;2.40;;
25213;SDS011;13160;51.834;4.706;2022-08-21T13:05:23;6.65;;;2.30;;
25213;SDS011;13160;51.834;4.706;2022-08-21T13:07:58;9.00;;;2.42;;
25213;SDS011;13160;51.834;4.706;2022-08-21T13:10:31;6.75;;;2.30;;
25213;SDS011;13160;51.834;4.706;2022-08-21T13:13:03;9.20;;;2.60;;
25213;SDS011;13160;51.834;4.706;2022-08-21T13:15:40;8.30;;;2.08;;
25213;SDS011;13160;51.834;4.706;2022-08-21T13:18:19;9.02;;;2.72;;
25213;SDS011;13160;51.834;4.706;2022-08-21T13:20:49;8.40;;;2.13;;
25213;SDS011;13160;51.834;4.706;2022-08-21T13:23:22;7.95;;;2.28;;
25213;SDS011;13160;51.834;4.706;2022-08-21T13:25:53;9.88;;;2.33;;
25213;SDS011;13160;51.834;4.706;2022-08-21T13:28:23;5.90;;;1.80;;
25213;SDS011;13160;51.834;4.706;2022-08-21T13:31:01;7.55;;;2.42;;
25213;SDS011;13160;51.834;4.706;2022-08-21T13:33:37;7.75;;;2.13;;
25213;SDS011;13160;51.834;4.706;2022-08-21T13:36:09;7.22;;;2.28;;
25213;SDS011;13160;51.834;4.706;2022-08-21T13:38:42;9.27;;;2.28;;
25213;SDS011;13160;51.834;4.706;2022-08-21T13:41:20;8.75;;;2.30;;
25213;SDS011;13160;51.834;4.706;2022-08-21T13:43:56;7.80;;;2.08;;
25213;SDS011;13160;51.834;4.706;2022-08-21T13:46:31;6.28;;;2.00;;
25213;SDS011;13160;51.834;4.706;2022-08-21T13:49:04;7.57;;;1.92;;
25213;SDS011;13160;51.834;4.706;2022-08-21T13:51:45;10.05;;;2.03;;
25213;SDS011;13160;51.834;4.706;2022-08-21T13:54:21;9.63;;;2.53;;
25213;SDS011;13160;51.834;4.706;2022-08-21T13:56:53;8.35;;;2.10;;
25213;SDS011;13160;51.834;4.706;2022-08-21T13:59:23;8.48;;;2.08;;
25213;SDS011;13160;51.834;4.706;2022-08-21T14:01:56;8.13;;;2.20;;
25213;SDS011;13160;51.834;4.706;2022-08-21T14:04:31;6.18;;;1.85;;
25213;SDS011;13160;51.834;4.706;2022-08-21T14:07:15;6.80;;;2.05;;
25213;SDS011;13160;51.834;4.706;2022-08-21T14:09:47;8.13;;;2.28;;
25213;SDS011;13160;51.834;4.706;2022-08-21T14:12:17;6.18;;;1.70;;
25213;SDS011;13160;51.834;4.706;2022-08-21T14:14:54;5.78;;;1.80;;
25213;SDS011;13160;51.834;4.706;2022-08-21T14:17:28;10.13;;;1.83;;
25213;SDS011;13160;51.834;4.706;2022-08-21T14:19:59;7.28;;;2.10;;
25213;SDS011;13160;51.834;4.706;2022-08-21T14:22:30;7.60;;;1.83;;
25213;SDS011;13160;51.834;4.706;2022-08-21T14:25:05;8.93;;;1.70;;
25213;SDS011;13160;51.834;4.706;2022-08-21T14:27:38;7.32;;;2.00;;
25213;SDS011;13160;51.834;4.706;2022-08-21T14:30:25;5.82;;;1.80;;
25213;SDS011;13160;51.834;4.706;2022-08-21T14:33:03;8.82;;;2.20;;
25213;SDS011;13160;51.834;4.706;2022-08-21T14:35:45;10.00;;;2.22;;
25213;SDS011;13160;51.834;4.706;2022-08-21T14:38:14;6.72;;;1.58;;
25213;SDS011;13160;51.834;4.706;2022-08-21T14:40:46;8.77;;;2.45;;
25213;SDS011;13160;51.834;4.706;2022-08-21T14:43:18;7.70;;;2.28;;
25213;SDS011;13160;51.834;4.706;2022-08-21T14:45:52;9.02;;;2.08;;
25213;SDS011;13160;51.834;4.706;2022-08-21T14:48:29;9.55;;;2.03;;
25213;SDS011;13160;51.834;4.706;2022-08-21T14:51:06;6.80;;;2.00;;
25213;SDS011;13160;51.834;4.706;2022-08-21T14:53:35;7.53;;;1.80;;
25213;SDS011;13160;51.834;4.706;2022-08-21T14:56:05;9.50;;;2.00;;
25213;SDS011;13160;51.834;4.706;2022-08-21T14:58:34;6.72;;;1.88;;
25213;SDS011;13160;51.834;4.706;2022-08-21T15:01:13;5.82;;;1.52;;
25213;SDS011;13160;51.834;4.706;2022-08-21T15:03:49;6.35;;;1.73;;
25213;SDS011;13160;51.834;4.706;2022-08-21T15:06:17;8.18;;;2.03;;
25213;SDS011;13160;51.834;4.706;2022-08-21T15:08:49;6.70;;;2.08;;
25213;SDS011;13160;51.834;4.706;2022-08-21T15:11:19;6.43;;;1.70;;
25213;SDS011;13160;51.834;4.706;2022-08-21T15:14:09;5.40;;;1.70;;